sensor_id;sensor_type;location;lat;lon;timestamp;temperature;humidity
41924;DHT22;27613;48.116;11.656;2023-03-24T00:00:40;11.60;99.90
41924;DHT22;27613;48.116;11.656;2023-03-24T00:03:06;11.60;99.90
41924;DHT22;27613;48.116;11.656;2023-03-24T00:05:32;11.50;99.90
41924;DHT22;27613;48.116;11.656;2023-03-24T00:07:57;11.50;99.90
41924;DHT22;27613;48.116;11.656;2023-03-24T00:10:27;11.50;99.90
41924;DHT22;27613;48.116;11.656;2023-03-24T00:12:59;11.40;99.90
41924;DHT22;27613;48.116;11.656;2023-03-24T00:15:25;11.40;99.90
41924;DHT22;27613;48.116;11.656;2023-03-24T00:17:51;11.50;99.90
41924;DHT22;27613;48.116;11.656;2023-03-24T00:20:19;11.50;99.90
41924;DHT22;27613;48.116;11.656;2023-03-24T00:22:48;11.50;99.90
41924;DHT22;27613;48.116;11.656;2023-03-24T00:25:20;11.50;99.90
41924;DHT22;27613;48.116;11.656;2023-03-24T00:27:52;11.40;99.90
41924;DHT22;27613;48.116;11.656;2023-03-24T00:30:19;11.40;99.90
41924;DHT22;27613;48.116;11.656;2023-03-24T00:32:45;11.30;99.90
41924;DHT22;27613;48.116;11.656;2023-03-24T00:35:13;11.30;99.90
41924;DHT22;27613;48.116;11.656;2023-03-24T00:37:41;11.20;99.90
41924;DHT22;27613;48.116;11.656;2023-03-24T00:40:15;11.20;99.90
41924;DHT22;27613;48.116;11.656;2023-03-24T00:42:41;11.20;99.90
41924;DHT22;27613;48.116;11.656;2023-03-24T00:45:12;11.10;99.90
41924;DHT22;27613;48.116;11.656;2023-03-24T00:47:38;11.10;99.90
41924;DHT22;27613;48.116;11.656;2023-03-24T00:50:05;11.00;99.90
41924;DHT22;27613;48.116;11.656;2023-03-24T00:52:31;11.00;99.90
41924;DHT22;27613;48.116;11.656;2023-03-24T00:55:01;11.00;99.90
41924;DHT22;27613;48.116;11.656;2023-03-24T00:57:29;11.00;99.90
41924;DHT22;27613;48.116;11.656;2023-03-24T01:00:00;11.00;99.90
41924;DHT22;27613;48.116;11.656;2023-03-24T01:02:36;11.00;99.90
41924;DHT22;27613;48.116;11.656;2023-03-24T01:05:02;11.00;99.90
41924;DHT22;27613;48.116;11.656;2023-03-24T01:07:28;10.90;99.90
41924;DHT22;27613;48.116;11.656;2023-03-24T01:09:55;10.90;99.90
41924;DHT22;27613;48.116;11.656;2023-03-24T01:12:24;10.90;99.90
41924;DHT22;27613;48.116;11.656;2023-03-24T01:14:51;10.90;99.90
41924;DHT22;27613;48.116;11.656;2023-03-24T01:17:18;10.90;99.90
41924;DHT22;27613;48.116;11.656;2023-03-24T01:19:44;10.90;99.90
41924;DHT22;27613;48.116;11.656;2023-03-24T01:22:11;11.00;99.90
41924;DHT22;27613;48.116;11.656;2023-03-24T01:24:37;11.00;99.90
41924;DHT22;27613;48.116;11.656;2023-03-24T01:27:03;11.00;99.90
41924;DHT22;27613;48.116;11.656;2023-03-24T01:29:28;11.00;99.90
41924;DHT22;27613;48.116;11.656;2023-03-24T01:31:54;11.00;99.90
41924;DHT22;27613;48.116;11.656;2023-03-24T01:34:19;11.00;99.90
41924;DHT22;27613;48.116;11.656;2023-03-24T01:36:45;11.00;99.90
41924;DHT22;27613;48.116;11.656;2023-03-24T01:39:11;11.00;99.90
41924;DHT22;27613;48.116;11.656;2023-03-24T01:41:38;10.90;99.90
41924;DHT22;27613;48.116;11.656;2023-03-24T01:46:48;10.90;99.90
41924;DHT22;27613;48.116;11.656;2023-03-24T01:49:13;10.90;99.90
41924;DHT22;27613;48.116;11.656;2023-03-24T01:51:45;10.90;99.90
41924;DHT22;27613;48.116;11.656;2023-03-24T01:56:51;10.80;99.90
41924;DHT22;27613;48.116;11.656;2023-03-24T01:59:22;10.70;99.90
41924;DHT22;27613;48.116;11.656;2023-03-24T02:01:48;10.80;99.90
41924;DHT22;27613;48.116;11.656;2023-03-24T02:04:16;10.80;99.90
41924;DHT22;27613;48.116;11.656;2023-03-24T02:06:43;10.80;99.90
41924;DHT22;27613;48.116;11.656;2023-03-24T02:09:12;10.80;99.90
41924;DHT22;27613;48.116;11.656;2023-03-24T02:11:39;10.80;99.90
41924;DHT22;27613;48.116;11.656;2023-03-24T02:14:07;10.90;99.90
41924;DHT22;27613;48.116;11.656;2023-03-24T02:20:09;10.90;99.90
41924;DHT22;27613;48.116;11.656;2023-03-24T02:22:49;10.90;99.90
41924;DHT22;27613;48.116;11.656;2023-03-24T02:25:45;10.90;99.90
41924;DHT22;27613;48.116;11.656;2023-03-24T02:28:47;10.90;99.90
41924;DHT22;27613;48.116;11.656;2023-03-24T02:31:34;10.90;99.90
41924;DHT22;27613;48.116;11.656;2023-03-24T02:34:29;11.00;99.90
41924;DHT22;27613;48.116;11.656;2023-03-24T02:37:22;11.10;99.90
41924;DHT22;27613;48.116;11.656;2023-03-24T02:40:31;11.00;99.90
41924;DHT22;27613;48.116;11.656;2023-03-24T02:51:03;11.00;99.90
41924;DHT22;27613;48.116;11.656;2023-03-24T02:53:50;11.10;99.90
41924;DHT22;27613;48.116;11.656;2023-03-24T02:56:32;11.00;99.90
41924;DHT22;27613;48.116;11.656;2023-03-24T02:59:06;11.00;99.90
41924;DHT22;27613;48.116;11.656;2023-03-24T03:01:46;11.00;99.90
41924;DHT22;27613;48.116;11.656;2023-03-24T03:04:25;10.90;99.90
41924;DHT22;27613;48.116;11.656;2023-03-24T03:06:56;10.80;99.90
41924;DHT22;27613;48.116;11.656;2023-03-24T03:09:24;10.80;99.90
41924;DHT22;27613;48.116;11.656;2023-03-24T03:11:53;10.90;99.90
41924;DHT22;27613;48.116;11.656;2023-03-24T03:14:44;10.90;99.90
41924;DHT22;27613;48.116;11.656;2023-03-24T03:17:23;10.90;99.90
41924;DHT22;27613;48.116;11.656;2023-03-24T03:19:59;10.90;99.90
41924;DHT22;27613;48.116;11.656;2023-03-24T03:22:39;10.90;99.90
41924;DHT22;27613;48.116;11.656;2023-03-24T03:25:08;10.90;99.90
41924;DHT22;27613;48.116;11.656;2023-03-24T03:27:35;10.90;99.90
41924;DHT22;27613;48.116;11.656;2023-03-24T03:30:27;10.90;99.90
41924;DHT22;27613;48.116;11.656;2023-03-24T03:33:00;11.00;99.90
41924;DHT22;27613;48.116;11.656;2023-03-24T03:35:32;11.00;99.90
41924;DHT22;27613;48.116;11.656;2023-03-24T03:38:04;11.00;99.90
41924;DHT22;27613;48.116;11.656;2023-03-24T03:40:40;11.00;99.90
41924;DHT22;27613;48.116;11.656;2023-03-24T03:43:06;11.00;99.90
41924;DHT22;27613;48.116;11.656;2023-03-24T03:45:33;11.00;99.90
41924;DHT22;27613;48.116;11.656;2023-03-24T03:47:59;10.90;99.90
41924;DHT22;27613;48.116;11.656;2023-03-24T03:50:25;10.90;99.90
41924;DHT22;27613;48.116;11.656;2023-03-24T03:52:50;10.90;99.90
41924;DHT22;27613;48.116;11.656;2023-03-24T03:55:17;10.90;99.90
41924;DHT22;27613;48.116;11.656;2023-03-24T03:57:43;10.80;99.90
41924;DHT22;27613;48.116;11.656;2023-03-24T04:00:15;10.90;99.90
41924;DHT22;27613;48.116;11.656;2023-03-24T04:02:53;10.90;99.90
41924;DHT22;27613;48.116;11.656;2023-03-24T04:05:37;10.90;99.90
41924;DHT22;27613;48.116;11.656;2023-03-24T04:08:27;10.90;99.90
41924;DHT22;27613;48.116;11.656;2023-03-24T04:11:17;10.90;99.90
41924;DHT22;27613;48.116;11.656;2023-03-24T04:16:59;10.90;99.90
41924;DHT22;27613;48.116;11.656;2023-03-24T04:24:55;10.90;99.90
41924;DHT22;27613;48.116;11.656;2023-03-24T04:27:37;11.00;99.90
41924;DHT22;27613;48.116;11.656;2023-03-24T04:30:31;11.00;99.90
41924;DHT22;27613;48.116;11.656;2023-03-24T04:32:59;11.10;99.90
41924;DHT22;27613;48.116;11.656;2023-03-24T04:35:41;11.10;99.90
41924;DHT22;27613;48.116;11.656;2023-03-24T04:38:13;11.20;99.90
41924;DHT22;27613;48.116;11.656;2023-03-24T04:40:44;11.20;99.90
41924;DHT22;27613;48.116;11.656;2023-03-24T04:43:13;11.20;99.90
41924;DHT22;27613;48.116;11.656;2023-03-24T04:45:41;11.20;99.90
41924;DHT22;27613;48.116;11.656;2023-03-24T04:48:08;11.20;99.90
41924;DHT22;27613;48.116;11.656;2023-03-24T04:50:37;11.20;99.90
41924;DHT22;27613;48.116;11.656;2023-03-24T04:53:04;11.20;99.90
41924;DHT22;27613;48.116;11.656;2023-03-24T04:58:04;11.20;99.90
41924;DHT22;27613;48.116;11.656;2023-03-24T05:00:30;11.10;99.90
41924;DHT22;27613;48.116;11.656;2023-03-24T05:02:57;11.10;99.90
41924;DHT22;27613;48.116;11.656;2023-03-24T05:05:23;11.10;99.90
41924;DHT22;27613;48.116;11.656;2023-03-24T05:07:48;11.10;99.90
41924;DHT22;27613;48.116;11.656;2023-03-24T05:10:15;11.10;99.90
41924;DHT22;27613;48.116;11.656;2023-03-24T05:12:41;11.20;99.90
41924;DHT22;27613;48.116;11.656;2023-03-24T05:15:07;11.20;99.90
41924;DHT22;27613;48.116;11.656;2023-03-24T05:17:33;11.20;99.90
41924;DHT22;27613;48.116;11.656;2023-03-24T05:19:58;11.20;99.90
41924;DHT22;27613;48.116;11.656;2023-03-24T05:22:24;11.30;99.90
41924;DHT22;27613;48.116;11.656;2023-03-24T05:24:50;11.30;99.90
41924;DHT22;27613;48.116;11.656;2023-03-24T05:27:15;11.20;99.90
41924;DHT22;27613;48.116;11.656;2023-03-24T05:29:41;11.10;99.90
41924;DHT22;27613;48.116;11.656;2023-03-24T05:32:06;11.00;99.90
41924;DHT22;27613;48.116;11.656;2023-03-24T05:34:32;10.90;99.90
41924;DHT22;27613;48.116;11.656;2023-03-24T05:36:57;10.80;99.90
41924;DHT22;27613;48.116;11.656;2023-03-24T05:39:23;10.80;99.90
41924;DHT22;27613;48.116;11.656;2023-03-24T05:41:48;10.70;99.90
41924;DHT22;27613;48.116;11.656;2023-03-24T05:44:14;10.70;99.90
41924;DHT22;27613;48.116;11.656;2023-03-24T05:46:39;10.70;99.90
41924;DHT22;27613;48.116;11.656;2023-03-24T05:49:06;10.80;99.90
41924;DHT22;27613;48.116;11.656;2023-03-24T05:51:32;10.80;99.90
41924;DHT22;27613;48.116;11.656;2023-03-24T05:53:57;10.80;99.90
41924;DHT22;27613;48.116;11.656;2023-03-24T05:56:23;10.90;99.90
41924;DHT22;27613;48.116;11.656;2023-03-24T05:58:48;11.10;99.90
41924;DHT22;27613;48.116;11.656;2023-03-24T06:01:15;11.00;99.90
41924;DHT22;27613;48.116;11.656;2023-03-24T06:03:43;11.00;99.90
41924;DHT22;27613;48.116;11.656;2023-03-24T06:06:09;11.00;99.90
41924;DHT22;27613;48.116;11.656;2023-03-24T06:08:41;11.00;99.90
41924;DHT22;27613;48.116;11.656;2023-03-24T06:11:09;11.20;99.90
41924;DHT22;27613;48.116;11.656;2023-03-24T06:13:35;11.30;99.90
41924;DHT22;27613;48.116;11.656;2023-03-24T06:16:01;11.20;99.90
41924;DHT22;27613;48.116;11.656;2023-03-24T06:18:27;11.20;99.90
41924;DHT22;27613;48.116;11.656;2023-03-24T06:20:55;11.10;99.90
41924;DHT22;27613;48.116;11.656;2023-03-24T06:23:25;11.10;99.90
41924;DHT22;27613;48.116;11.656;2023-03-24T06:25:53;11.10;99.90
41924;DHT22;27613;48.116;11.656;2023-03-24T06:28:19;11.10;99.90
41924;DHT22;27613;48.116;11.656;2023-03-24T06:30:45;11.20;99.90
41924;DHT22;27613;48.116;11.656;2023-03-24T06:33:13;11.20;99.90
41924;DHT22;27613;48.116;11.656;2023-03-24T06:35:39;11.30;99.90
41924;DHT22;27613;48.116;11.656;2023-03-24T06:38:05;11.30;99.90
41924;DHT22;27613;48.116;11.656;2023-03-24T06:40:32;11.40;99.90
41924;DHT22;27613;48.116;11.656;2023-03-24T06:42:57;11.40;99.90
41924;DHT22;27613;48.116;11.656;2023-03-24T06:45:23;11.50;99.90
41924;DHT22;27613;48.116;11.656;2023-03-24T06:47:53;11.40;99.90
41924;DHT22;27613;48.116;11.656;2023-03-24T06:50:21;11.50;99.90
41924;DHT22;27613;48.116;11.656;2023-03-24T06:52:46;11.50;99.90
41924;DHT22;27613;48.116;11.656;2023-03-24T06:55:12;11.40;99.90
41924;DHT22;27613;48.116;11.656;2023-03-24T06:57:37;11.40;99.90
41924;DHT22;27613;48.116;11.656;2023-03-24T07:00:04;11.50;99.90
41924;DHT22;27613;48.116;11.656;2023-03-24T07:02:30;11.50;99.90
41924;DHT22;27613;48.116;11.656;2023-03-24T07:05:00;11.60;99.90
41924;DHT22;27613;48.116;11.656;2023-03-24T07:07:30;11.70;99.90
41924;DHT22;27613;48.116;11.656;2023-03-24T07:09:57;11.80;99.90
41924;DHT22;27613;48.116;11.656;2023-03-24T07:12:22;11.80;99.90
41924;DHT22;27613;48.116;11.656;2023-03-24T07:14:48;11.90;99.90
41924;DHT22;27613;48.116;11.656;2023-03-24T07:17:13;11.80;99.90
41924;DHT22;27613;48.116;11.656;2023-03-24T07:19:39;11.80;99.90
41924;DHT22;27613;48.116;11.656;2023-03-24T07:22:05;11.80;99.90
41924;DHT22;27613;48.116;11.656;2023-03-24T07:24:33;11.80;99.90
41924;DHT22;27613;48.116;11.656;2023-03-24T07:27:00;11.70;99.90
41924;DHT22;27613;48.116;11.656;2023-03-24T07:29:25;11.70;99.90
41924;DHT22;27613;48.116;11.656;2023-03-24T07:31:51;11.70;99.90
41924;DHT22;27613;48.116;11.656;2023-03-24T07:34:17;11.70;99.90
41924;DHT22;27613;48.116;11.656;2023-03-24T07:36:44;11.60;99.90
41924;DHT22;27613;48.116;11.656;2023-03-24T07:39:10;11.60;99.90
41924;DHT22;27613;48.116;11.656;2023-03-24T07:41:36;11.60;99.90
41924;DHT22;27613;48.116;11.656;2023-03-24T07:44:01;11.50;99.90
41924;DHT22;27613;48.116;11.656;2023-03-24T07:46:27;11.50;99.90
41924;DHT22;27613;48.116;11.656;2023-03-24T07:48:52;11.40;99.90
41924;DHT22;27613;48.116;11.656;2023-03-24T07:51:18;11.30;99.90
41924;DHT22;27613;48.116;11.656;2023-03-24T07:53:44;11.30;99.90
41924;DHT22;27613;48.116;11.656;2023-03-24T07:56:14;11.30;99.90
41924;DHT22;27613;48.116;11.656;2023-03-24T07:58:39;11.40;99.90
41924;DHT22;27613;48.116;11.656;2023-03-24T08:01:06;11.40;99.90
41924;DHT22;27613;48.116;11.656;2023-03-24T08:03:35;11.40;99.90
41924;DHT22;27613;48.116;11.656;2023-03-24T08:06:01;11.40;99.90
41924;DHT22;27613;48.116;11.656;2023-03-24T08:08:26;11.40;99.90
41924;DHT22;27613;48.116;11.656;2023-03-24T08:10:52;11.50;99.90
41924;DHT22;27613;48.116;11.656;2023-03-24T08:13:17;11.60;99.90
41924;DHT22;27613;48.116;11.656;2023-03-24T08:15:43;11.70;99.90
41924;DHT22;27613;48.116;11.656;2023-03-24T08:18:10;11.90;99.90
41924;DHT22;27613;48.116;11.656;2023-03-24T08:20:35;12.00;99.90
41924;DHT22;27613;48.116;11.656;2023-03-24T08:23:01;12.20;99.90
41924;DHT22;27613;48.116;11.656;2023-03-24T08:25:29;12.50;99.90
41924;DHT22;27613;48.116;11.656;2023-03-24T08:27:55;12.90;99.90
41924;DHT22;27613;48.116;11.656;2023-03-24T08:30:23;13.10;99.90
41924;DHT22;27613;48.116;11.656;2023-03-24T08:32:54;13.30;99.90
41924;DHT22;27613;48.116;11.656;2023-03-24T08:35:26;13.40;99.90
41924;DHT22;27613;48.116;11.656;2023-03-24T08:37:51;13.50;99.90
41924;DHT22;27613;48.116;11.656;2023-03-24T08:40:19;13.60;99.90
41924;DHT22;27613;48.116;11.656;2023-03-24T08:42:49;13.70;99.90
41924;DHT22;27613;48.116;11.656;2023-03-24T08:45:16;13.80;99.90
41924;DHT22;27613;48.116;11.656;2023-03-24T08:47:46;13.80;99.90
41924;DHT22;27613;48.116;11.656;2023-03-24T08:50:12;13.80;99.90
41924;DHT22;27613;48.116;11.656;2023-03-24T08:52:38;13.80;99.90
41924;DHT22;27613;48.116;11.656;2023-03-24T08:55:04;13.80;99.90
41924;DHT22;27613;48.116;11.656;2023-03-24T08:57:30;13.70;99.90
41924;DHT22;27613;48.116;11.656;2023-03-24T08:59:56;13.70;99.90
41924;DHT22;27613;48.116;11.656;2023-03-24T09:02:21;13.60;99.90
41924;DHT22;27613;48.116;11.656;2023-03-24T09:04:47;13.50;99.90
41924;DHT22;27613;48.116;11.656;2023-03-24T09:07:16;13.40;99.90
41924;DHT22;27613;48.116;11.656;2023-03-24T09:09:42;13.40;99.90
41924;DHT22;27613;48.116;11.656;2023-03-24T09:12:07;13.40;99.90
41924;DHT22;27613;48.116;11.656;2023-03-24T09:14:34;13.60;99.90
41924;DHT22;27613;48.116;11.656;2023-03-24T09:16:59;13.60;99.90
41924;DHT22;27613;48.116;11.656;2023-03-24T09:19:25;13.50;99.90
41924;DHT22;27613;48.116;11.656;2023-03-24T09:21:50;13.70;99.90
41924;DHT22;27613;48.116;11.656;2023-03-24T09:24:16;13.70;99.90
41924;DHT22;27613;48.116;11.656;2023-03-24T09:26:41;13.90;99.90
41924;DHT22;27613;48.116;11.656;2023-03-24T09:29:07;13.90;99.90
41924;DHT22;27613;48.116;11.656;2023-03-24T09:31:33;13.80;99.90
41924;DHT22;27613;48.116;11.656;2023-03-24T09:33:58;13.80;99.90
41924;DHT22;27613;48.116;11.656;2023-03-24T09:36:25;13.80;99.90
41924;DHT22;27613;48.116;11.656;2023-03-24T09:38:51;13.90;99.90
41924;DHT22;27613;48.116;11.656;2023-03-24T09:41:23;13.80;99.90
41924;DHT22;27613;48.116;11.656;2023-03-24T09:44:05;13.70;99.90
41924;DHT22;27613;48.116;11.656;2023-03-24T09:46:46;13.50;99.90
41924;DHT22;27613;48.116;11.656;2023-03-24T09:49:17;13.40;99.90
41924;DHT22;27613;48.116;11.656;2023-03-24T09:51:49;13.20;99.90
41924;DHT22;27613;48.116;11.656;2023-03-24T09:54:26;13.00;99.90
41924;DHT22;27613;48.116;11.656;2023-03-24T09:56:54;12.90;99.90
41924;DHT22;27613;48.116;11.656;2023-03-24T09:59:31;12.80;99.90
41924;DHT22;27613;48.116;11.656;2023-03-24T10:01:57;12.70;99.90
41924;DHT22;27613;48.116;11.656;2023-03-24T10:04:25;12.70;99.90
41924;DHT22;27613;48.116;11.656;2023-03-24T10:06:59;12.60;99.90
41924;DHT22;27613;48.116;11.656;2023-03-24T10:09:30;12.50;99.90
41924;DHT22;27613;48.116;11.656;2023-03-24T10:12:12;12.50;99.90
41924;DHT22;27613;48.116;11.656;2023-03-24T10:21:00;12.50;99.90
41924;DHT22;27613;48.116;11.656;2023-03-24T10:23:52;12.60;99.90
41924;DHT22;27613;48.116;11.656;2023-03-24T10:26:44;12.60;99.90
41924;DHT22;27613;48.116;11.656;2023-03-24T10:29:34;12.50;99.90
41924;DHT22;27613;48.116;11.656;2023-03-24T10:32:17;12.50;99.90
41924;DHT22;27613;48.116;11.656;2023-03-24T10:34:51;12.40;99.90
41924;DHT22;27613;48.116;11.656;2023-03-24T10:37:19;12.40;99.90
41924;DHT22;27613;48.116;11.656;2023-03-24T10:39:44;12.30;99.90
41924;DHT22;27613;48.116;11.656;2023-03-24T10:42:32;12.30;99.90
41924;DHT22;27613;48.116;11.656;2023-03-24T10:44:58;12.20;99.90
41924;DHT22;27613;48.116;11.656;2023-03-24T10:47:25;12.20;99.90
41924;DHT22;27613;48.116;11.656;2023-03-24T10:49:56;12.30;99.90
41924;DHT22;27613;48.116;11.656;2023-03-24T10:52:22;12.40;99.90
41924;DHT22;27613;48.116;11.656;2023-03-24T10:55:19;12.60;99.90
41924;DHT22;27613;48.116;11.656;2023-03-24T10:57:47;12.80;99.90
41924;DHT22;27613;48.116;11.656;2023-03-24T11:00:25;12.80;99.90
41924;DHT22;27613;48.116;11.656;2023-03-24T11:03:00;12.80;99.90
41924;DHT22;27613;48.116;11.656;2023-03-24T11:05:31;12.80;99.90
41924;DHT22;27613;48.116;11.656;2023-03-24T11:08:24;12.70;99.90
41924;DHT22;27613;48.116;11.656;2023-03-24T11:10:53;12.70;99.90
41924;DHT22;27613;48.116;11.656;2023-03-24T11:18:29;12.40;99.90
41924;DHT22;27613;48.116;11.656;2023-03-24T11:21:00;12.40;99.90
41924;DHT22;27613;48.116;11.656;2023-03-24T11:23:31;12.50;99.90
41924;DHT22;27613;48.116;11.656;2023-03-24T11:26:27;12.50;99.90
41924;DHT22;27613;48.116;11.656;2023-03-24T11:28:56;12.20;99.90
41924;DHT22;27613;48.116;11.656;2023-03-24T11:31:28;12.10;99.90
41924;DHT22;27613;48.116;11.656;2023-03-24T11:34:01;12.10;99.90
41924;DHT22;27613;48.116;11.656;2023-03-24T11:41:27;11.50;99.90
41924;DHT22;27613;48.116;11.656;2023-03-24T11:44:16;11.40;99.90
41924;DHT22;27613;48.116;11.656;2023-03-24T11:46:44;11.50;99.90
41924;DHT22;27613;48.116;11.656;2023-03-24T11:49:12;11.70;99.90
41924;DHT22;27613;48.116;11.656;2023-03-24T11:51:41;11.90;99.90
41924;DHT22;27613;48.116;11.656;2023-03-24T11:54:12;12.10;99.90
41924;DHT22;27613;48.116;11.656;2023-03-24T11:56:50;12.40;99.90
41924;DHT22;27613;48.116;11.656;2023-03-24T11:59:36;12.50;99.90
41924;DHT22;27613;48.116;11.656;2023-03-24T12:04:49;12.90;99.90
41924;DHT22;27613;48.116;11.656;2023-03-24T12:10:28;13.50;99.90
41924;DHT22;27613;48.116;11.656;2023-03-24T12:13:34;13.80;99.90
41924;DHT22;27613;48.116;11.656;2023-03-24T12:24:07;14.70;99.90
41924;DHT22;27613;48.116;11.656;2023-03-24T12:26:36;14.40;99.90
41924;DHT22;27613;48.116;11.656;2023-03-24T12:29:24;14.40;99.90
41924;DHT22;27613;48.116;11.656;2023-03-24T12:45:55;14.20;99.90
41924;DHT22;27613;48.116;11.656;2023-03-24T12:48:46;14.20;99.90
41924;DHT22;27613;48.116;11.656;2023-03-24T12:51:35;14.20;99.90
41924;DHT22;27613;48.116;11.656;2023-03-24T12:55:20;14.20;99.90
41924;DHT22;27613;48.116;11.656;2023-03-24T12:57:16;14.30;99.90
41924;DHT22;27613;48.116;11.656;2023-03-24T12:59:46;14.30;99.90
41924;DHT22;27613;48.116;11.656;2023-03-24T13:02:29;14.30;99.90
41924;DHT22;27613;48.116;11.656;2023-03-24T13:05:01;14.50;99.90
41924;DHT22;27613;48.116;11.656;2023-03-24T13:07:32;14.60;99.90
41924;DHT22;27613;48.116;11.656;2023-03-24T13:10:16;14.50;99.90
41924;DHT22;27613;48.116;11.656;2023-03-24T13:15:24;14.60;99.90
41924;DHT22;27613;48.116;11.656;2023-03-24T13:20:45;14.50;99.90
41924;DHT22;27613;48.116;11.656;2023-03-24T13:23:19;14.40;99.90
41924;DHT22;27613;48.116;11.656;2023-03-24T13:28:59;14.10;99.90
41924;DHT22;27613;48.116;11.656;2023-03-24T13:31:40;14.10;99.90
41924;DHT22;27613;48.116;11.656;2023-03-24T13:34:23;14.00;99.90
41924;DHT22;27613;48.116;11.656;2023-03-24T13:36:54;14.10;99.90
41924;DHT22;27613;48.116;11.656;2023-03-24T13:39:22;14.00;99.90
41924;DHT22;27613;48.116;11.656;2023-03-24T13:41:51;13.70;99.90
41924;DHT22;27613;48.116;11.656;2023-03-24T13:44:21;13.60;99.90
41924;DHT22;27613;48.116;11.656;2023-03-24T13:47:17;13.40;99.90
41924;DHT22;27613;48.116;11.656;2023-03-24T13:49:58;13.30;99.90
41924;DHT22;27613;48.116;11.656;2023-03-24T13:52:38;13.20;99.90
41924;DHT22;27613;48.116;11.656;2023-03-24T13:55:12;13.10;99.90
41924;DHT22;27613;48.116;11.656;2023-03-24T13:58:07;12.80;99.90
41924;DHT22;27613;48.116;11.656;2023-03-24T14:06:51;12.60;99.90
41924;DHT22;27613;48.116;11.656;2023-03-24T14:09:21;12.60;99.90
41924;DHT22;27613;48.116;11.656;2023-03-24T14:14:29;12.70;99.90
41924;DHT22;27613;48.116;11.656;2023-03-24T14:17:11;12.70;99.90
41924;DHT22;27613;48.116;11.656;2023-03-24T14:22:32;12.70;99.90
41924;DHT22;27613;48.116;11.656;2023-03-24T14:25:05;12.80;99.90
41924;DHT22;27613;48.116;11.656;2023-03-24T14:27:43;12.80;99.90
41924;DHT22;27613;48.116;11.656;2023-03-24T14:30:12;13.00;99.90
41924;DHT22;27613;48.116;11.656;2023-03-24T14:32:45;13.00;99.90
41924;DHT22;27613;48.116;11.656;2023-03-24T14:35:37;13.00;99.90
41924;DHT22;27613;48.116;11.656;2023-03-24T14:38:04;12.90;99.90
41924;DHT22;27613;48.116;11.656;2023-03-24T14:40:51;12.90;99.90
41924;DHT22;27613;48.116;11.656;2023-03-24T14:43:27;12.90;99.90
41924;DHT22;27613;48.116;11.656;2023-03-24T14:46:02;13.00;99.90
41924;DHT22;27613;48.116;11.656;2023-03-24T14:48:35;13.00;99.90
41924;DHT22;27613;48.116;11.656;2023-03-24T14:53:42;13.10;99.90
41924;DHT22;27613;48.116;11.656;2023-03-24T14:56:13;13.00;99.90
41924;DHT22;27613;48.116;11.656;2023-03-24T14:58:41;13.00;99.90
41924;DHT22;27613;48.116;11.656;2023-03-24T15:01:08;12.90;99.90
41924;DHT22;27613;48.116;11.656;2023-03-24T15:04:00;12.90;99.90
41924;DHT22;27613;48.116;11.656;2023-03-24T15:06:26;12.90;99.90
41924;DHT22;27613;48.116;11.656;2023-03-24T15:08:53;12.90;99.90
41924;DHT22;27613;48.116;11.656;2023-03-24T15:11:23;12.90;99.90
41924;DHT22;27613;48.116;11.656;2023-03-24T15:13:57;12.80;99.90
41924;DHT22;27613;48.116;11.656;2023-03-24T15:16:26;12.70;99.90
41924;DHT22;27613;48.116;11.656;2023-03-24T15:21:45;12.70;99.90
41924;DHT22;27613;48.116;11.656;2023-03-24T15:26:47;12.70;99.90
41924;DHT22;27613;48.116;11.656;2023-03-24T15:29:13;12.70;99.90
41924;DHT22;27613;48.116;11.656;2023-03-24T15:31:38;12.60;99.90
41924;DHT22;27613;48.116;11.656;2023-03-24T15:36:56;12.50;99.90
41924;DHT22;27613;48.116;11.656;2023-03-24T15:39:27;12.50;99.90
41924;DHT22;27613;48.116;11.656;2023-03-24T15:41:54;12.40;99.90
41924;DHT22;27613;48.116;11.656;2023-03-24T15:44:24;12.40;99.90
41924;DHT22;27613;48.116;11.656;2023-03-24T15:46:57;12.30;99.90
41924;DHT22;27613;48.116;11.656;2023-03-24T15:49:25;12.30;99.90
41924;DHT22;27613;48.116;11.656;2023-03-24T15:52:03;12.30;99.90
41924;DHT22;27613;48.116;11.656;2023-03-24T15:54:40;12.30;99.90
41924;DHT22;27613;48.116;11.656;2023-03-24T15:57:19;12.30;99.90
41924;DHT22;27613;48.116;11.656;2023-03-24T15:59:48;12.30;99.90
41924;DHT22;27613;48.116;11.656;2023-03-24T16:04:46;12.30;99.90
41924;DHT22;27613;48.116;11.656;2023-03-24T16:07:24;12.20;99.90
41924;DHT22;27613;48.116;11.656;2023-03-24T16:10:01;12.00;99.90
41924;DHT22;27613;48.116;11.656;2023-03-24T16:12:36;11.70;99.90
41924;DHT22;27613;48.116;11.656;2023-03-24T16:15:03;11.30;99.90
41924;DHT22;27613;48.116;11.656;2023-03-24T16:17:31;10.80;99.90
41924;DHT22;27613;48.116;11.656;2023-03-24T16:19:56;10.50;99.90
41924;DHT22;27613;48.116;11.656;2023-03-24T16:22:22;10.40;99.90
41924;DHT22;27613;48.116;11.656;2023-03-24T16:24:48;10.20;99.90
41924;DHT22;27613;48.116;11.656;2023-03-24T16:27:14;10.10;99.90
41924;DHT22;27613;48.116;11.656;2023-03-24T16:29:40;9.90;99.90
41924;DHT22;27613;48.116;11.656;2023-03-24T16:32:07;9.90;99.90
41924;DHT22;27613;48.116;11.656;2023-03-24T16:34:33;9.80;99.90
41924;DHT22;27613;48.116;11.656;2023-03-24T16:36:59;9.70;99.90
41924;DHT22;27613;48.116;11.656;2023-03-24T16:39:26;9.70;99.90
41924;DHT22;27613;48.116;11.656;2023-03-24T16:41:53;9.70;99.90
41924;DHT22;27613;48.116;11.656;2023-03-24T16:44:19;9.70;99.90
41924;DHT22;27613;48.116;11.656;2023-03-24T16:46:46;9.70;99.90
41924;DHT22;27613;48.116;11.656;2023-03-24T16:49:14;9.60;99.90
41924;DHT22;27613;48.116;11.656;2023-03-24T16:51:40;9.60;99.90
41924;DHT22;27613;48.116;11.656;2023-03-24T16:54:07;9.60;99.90
41924;DHT22;27613;48.116;11.656;2023-03-24T16:56:34;9.50;99.90
41924;DHT22;27613;48.116;11.656;2023-03-24T16:59:00;9.50;99.90
41924;DHT22;27613;48.116;11.656;2023-03-24T17:01:30;9.50;99.90
41924;DHT22;27613;48.116;11.656;2023-03-24T17:06:36;9.50;99.90
41924;DHT22;27613;48.116;11.656;2023-03-24T17:09:03;9.50;99.90
41924;DHT22;27613;48.116;11.656;2023-03-24T17:11:38;9.40;99.90
41924;DHT22;27613;48.116;11.656;2023-03-24T17:14:06;9.40;99.90
41924;DHT22;27613;48.116;11.656;2023-03-24T17:16:37;9.50;99.90
41924;DHT22;27613;48.116;11.656;2023-03-24T17:19:11;9.50;99.90
41924;DHT22;27613;48.116;11.656;2023-03-24T17:21:41;9.50;99.90
41924;DHT22;27613;48.116;11.656;2023-03-24T17:24:09;9.40;99.90
41924;DHT22;27613;48.116;11.656;2023-03-24T17:26:38;9.40;99.90
41924;DHT22;27613;48.116;11.656;2023-03-24T17:29:04;9.40;99.90